sensor_id;sensor_type;location;lat;lon;timestamp;pressure;altitude;pressure_sealevel;temperature;humidity
73297;BME280;61524;50.938;11.396;2022-09-03T00:01:34;99263.41;;;10.59;76.14
73297;BME280;61524;50.938;11.396;2022-09-03T00:04:11;99261.22;;;10.56;76.34
73297;BME280;61524;50.938;11.396;2022-09-03T00:06:57;99258.47;;;10.50;76.90
73297;BME280;61524;50.938;11.396;2022-09-03T00:09:28;99258.22;;;10.52;76.93
73297;BME280;61524;50.938;11.396;2022-09-03T00:12:13;99256.59;;;10.51;76.54
73297;BME280;61524;50.938;11.396;2022-09-03T00:14:43;99252.44;;;10.43;76.97
73297;BME280;61524;50.938;11.396;2022-09-03T00:17:35;99265.06;;;10.48;76.24
73297;BME280;61524;50.938;11.396;2022-09-03T00:20:04;99258.84;;;10.42;76.54
73297;BME280;61524;50.938;11.396;2022-09-03T00:22:39;99249.47;;;10.40;76.50
73297;BME280;61524;50.938;11.396;2022-09-03T00:25:10;99256.31;;;10.36;77.41
73297;BME280;61524;50.938;11.396;2022-09-03T00:27:39;99257.03;;;10.31;77.29
73297;BME280;61524;50.938;11.396;2022-09-03T00:30:11;99253.66;;;10.36;77.35
73297;BME280;61524;50.938;11.396;2022-09-03T00:33:03;99257.22;;;10.41;77.53
73297;BME280;61524;50.938;11.396;2022-09-03T00:35:34;99255.94;;;10.44;77.79
73297;BME280;61524;50.938;11.396;2022-09-03T00:38:01;99266.16;;;10.64;75.25
73297;BME280;61524;50.938;11.396;2022-09-03T00:46:31;99268.63;;;10.82;74.78
73297;BME280;61524;50.938;11.396;2022-09-03T00:51:58;99273.63;;;10.95;75.21
73297;BME280;61524;50.938;11.396;2022-09-03T00:57:21;99270.72;;;10.97;73.90
73297;BME280;61524;50.938;11.396;2022-09-03T01:00:08;99270.88;;;10.90;74.84
73297;BME280;61524;50.938;11.396;2022-09-03T01:13:48;99265.59;;;10.78;75.02
73297;BME280;61524;50.938;11.396;2022-09-03T01:16:26;99273.06;;;10.76;75.73
73297;BME280;61524;50.938;11.396;2022-09-03T01:19:11;99269.56;;;10.76;75.85
73297;BME280;61524;50.938;11.396;2022-09-03T01:22:07;99265.78;;;10.72;75.51
73297;BME280;61524;50.938;11.396;2022-09-03T01:30:20;99260.97;;;10.74;74.42
73297;BME280;61524;50.938;11.396;2022-09-03T01:32:59;99271.03;;;10.67;74.71
73297;BME280;61524;50.938;11.396;2022-09-03T01:44:01;99270.25;;;10.55;76.22
73297;BME280;61524;50.938;11.396;2022-09-03T01:46:39;99263.22;;;10.48;76.76
73297;BME280;61524;50.938;11.396;2022-09-03T01:49:37;99261.75;;;10.41;76.29
73297;BME280;61524;50.938;11.396;2022-09-03T01:55:32;99272.84;;;10.21;77.94
73297;BME280;61524;50.938;11.396;2022-09-03T02:00:33;99260.69;;;10.13;78.19
73297;BME280;61524;50.938;11.396;2022-09-03T02:03:04;99260.47;;;10.03;78.22
73297;BME280;61524;50.938;11.396;2022-09-03T02:05:31;99259.19;;;10.06;77.74
73297;BME280;61524;50.938;11.396;2022-09-03T02:08:08;99258.53;;;9.98;79.39
73297;BME280;61524;50.938;11.396;2022-09-03T02:10:43;99255.03;;;9.98;79.19
73297;BME280;61524;50.938;11.396;2022-09-03T02:15:44;99260.72;;;10.02;78.79
73297;BME280;61524;50.938;11.396;2022-09-03T02:18:19;99247.84;;;9.98;79.33
73297;BME280;61524;50.938;11.396;2022-09-03T02:20:47;99264.66;;;9.99;78.78
73297;BME280;61524;50.938;11.396;2022-09-03T02:23:15;99263.50;;;9.95;79.12
73297;BME280;61524;50.938;11.396;2022-09-03T02:25:47;99262.94;;;9.93;79.77
73297;BME280;61524;50.938;11.396;2022-09-03T02:28:14;99254.13;;;9.92;79.82
73297;BME280;61524;50.938;11.396;2022-09-03T02:30:41;99256.34;;;9.84;79.95
73297;BME280;61524;50.938;11.396;2022-09-03T02:33:06;99250.69;;;9.80;80.31
73297;BME280;61524;50.938;11.396;2022-09-03T02:35:32;99253.69;;;9.84;79.64
73297;BME280;61524;50.938;11.396;2022-09-03T02:38:08;99261.69;;;9.84;80.26
73297;BME280;61524;50.938;11.396;2022-09-03T02:40:34;99252.78;;;9.78;80.63
73297;BME280;61524;50.938;11.396;2022-09-03T02:43:00;99255.69;;;9.77;80.96
73297;BME280;61524;50.938;11.396;2022-09-03T02:45:28;99254.88;;;9.76;79.81
73297;BME280;61524;50.938;11.396;2022-09-03T02:47:58;99261.03;;;9.77;79.29
73297;BME280;61524;50.938;11.396;2022-09-03T02:50:25;99257.44;;;9.71;80.26
73297;BME280;61524;50.938;11.396;2022-09-03T02:52:51;99242.69;;;9.68;81.26
73297;BME280;61524;50.938;11.396;2022-09-03T02:55:17;99251.28;;;9.70;79.66
73297;BME280;61524;50.938;11.396;2022-09-03T02:57:43;99240.41;;;9.60;80.21
73297;BME280;61524;50.938;11.396;2022-09-03T03:00:09;99243.53;;;9.69;79.79
73297;BME280;61524;50.938;11.396;2022-09-03T03:02:35;99236.59;;;9.56;82.01
73297;BME280;61524;50.938;11.396;2022-09-03T03:05:01;99244.59;;;9.44;81.54
73297;BME280;61524;50.938;11.396;2022-09-03T03:07:29;99237.31;;;9.28;81.90
73297;BME280;61524;50.938;11.396;2022-09-03T03:09:56;99233.50;;;9.24;81.84
73297;BME280;61524;50.938;11.396;2022-09-03T03:12:22;99240.34;;;9.32;81.04
73297;BME280;61524;50.938;11.396;2022-09-03T03:14:48;99234.19;;;9.31;81.51
73297;BME280;61524;50.938;11.396;2022-09-03T03:17:13;99231.63;;;9.25;82.50
73297;BME280;61524;50.938;11.396;2022-09-03T03:19:39;99232.00;;;9.16;83.59
73297;BME280;61524;50.938;11.396;2022-09-03T03:22:04;99241.63;;;9.17;82.20
73297;BME280;61524;50.938;11.396;2022-09-03T03:24:30;99240.94;;;9.10;83.50
73297;BME280;61524;50.938;11.396;2022-09-03T03:26:56;99244.03;;;9.07;83.28
73297;BME280;61524;50.938;11.396;2022-09-03T03:29:24;99238.59;;;9.02;84.18
73297;BME280;61524;50.938;11.396;2022-09-03T03:31:50;99234.44;;;8.94;83.97
73297;BME280;61524;50.938;11.396;2022-09-03T03:34:16;99230.59;;;8.90;84.98
73297;BME280;61524;50.938;11.396;2022-09-03T03:36:42;99227.00;;;8.85;84.91
73297;BME280;61524;50.938;11.396;2022-09-03T03:39:07;99227.44;;;8.82;85.56
73297;BME280;61524;50.938;11.396;2022-09-03T03:41:34;99230.72;;;8.72;86.34
73297;BME280;61524;50.938;11.396;2022-09-03T03:44:03;99225.81;;;8.57;86.10
73297;BME280;61524;50.938;11.396;2022-09-03T03:46:31;99236.78;;;8.49;85.79
73297;BME280;61524;50.938;11.396;2022-09-03T03:48:57;99243.63;;;8.45;86.24
73297;BME280;61524;50.938;11.396;2022-09-03T03:51:24;99243.50;;;8.40;85.49
73297;BME280;61524;50.938;11.396;2022-09-03T03:53:53;99242.56;;;8.46;85.81
73297;BME280;61524;50.938;11.396;2022-09-03T03:56:19;99237.13;;;8.41;86.00
73297;BME280;61524;50.938;11.396;2022-09-03T03:58:45;99232.84;;;8.40;85.55
73297;BME280;61524;50.938;11.396;2022-09-03T04:03:38;99227.28;;;8.23;85.70
73297;BME280;61524;50.938;11.396;2022-09-03T04:06:05;99236.94;;;8.24;86.37
73297;BME280;61524;50.938;11.396;2022-09-03T04:08:34;99234.13;;;8.19;87.17
73297;BME280;61524;50.938;11.396;2022-09-03T04:11:04;99236.13;;;8.24;86.57
73297;BME280;61524;50.938;11.396;2022-09-03T04:13:34;99230.06;;;8.16;86.66
73297;BME280;61524;50.938;11.396;2022-09-03T04:18:32;99232.91;;;8.03;88.16
73297;BME280;61524;50.938;11.396;2022-09-03T04:21:03;99237.63;;;8.01;87.82
73297;BME280;61524;50.938;11.396;2022-09-03T04:23:30;99229.50;;;7.96;88.03
73297;BME280;61524;50.938;11.396;2022-09-03T04:25:56;99223.22;;;7.90;88.44
73297;BME280;61524;50.938;11.396;2022-09-03T04:28:22;99230.88;;;7.87;88.72
73297;BME280;61524;50.938;11.396;2022-09-03T04:30:47;99236.41;;;7.85;89.09
73297;BME280;61524;50.938;11.396;2022-09-03T04:33:12;99237.44;;;7.84;89.13
73297;BME280;61524;50.938;11.396;2022-09-03T04:35:38;99230.97;;;7.80;88.98
73297;BME280;61524;50.938;11.396;2022-09-03T04:38:05;99219.13;;;7.76;88.85
73297;BME280;61524;50.938;11.396;2022-09-03T04:40:30;99234.16;;;7.71;89.63
73297;BME280;61524;50.938;11.396;2022-09-03T04:42:56;99221.38;;;7.61;89.69
73297;BME280;61524;50.938;11.396;2022-09-03T04:45:23;99224.03;;;7.61;88.84
73297;BME280;61524;50.938;11.396;2022-09-03T04:47:59;99230.16;;;7.61;89.01
73297;BME280;61524;50.938;11.396;2022-09-03T04:50:25;99221.59;;;7.41;89.58
73297;BME280;61524;50.938;11.396;2022-09-03T04:52:52;99230.44;;;7.35;90.86
73297;BME280;61524;50.938;11.396;2022-09-03T04:55:19;99229.72;;;7.28;91.30
73297;BME280;61524;50.938;11.396;2022-09-03T04:57:44;99220.69;;;7.29;91.32
73297;BME280;61524;50.938;11.396;2022-09-03T05:00:10;99230.22;;;7.36;90.50
73297;BME280;61524;50.938;11.396;2022-09-03T05:02:36;99231.63;;;7.39;90.37
73297;BME280;61524;50.938;11.396;2022-09-03T05:05:02;99240.94;;;7.48;90.09
73297;BME280;61524;50.938;11.396;2022-09-03T05:07:29;99246.03;;;7.50;89.76
73297;BME280;61524;50.938;11.396;2022-09-03T05:10:05;99243.31;;;7.38;90.16
73297;BME280;61524;50.938;11.396;2022-09-03T05:12:31;99241.22;;;7.40;89.84
73297;BME280;61524;50.938;11.396;2022-09-03T05:14:57;99248.03;;;7.54;89.78
73297;BME280;61524;50.938;11.396;2022-09-03T05:17:24;99247.06;;;7.67;89.19
73297;BME280;61524;50.938;11.396;2022-09-03T05:19:50;99246.38;;;7.90;87.77
73297;BME280;61524;50.938;11.396;2022-09-03T05:22:16;99240.53;;;8.00;87.59
73297;BME280;61524;50.938;11.396;2022-09-03T05:24:46;99247.63;;;8.18;87.83
73297;BME280;61524;50.938;11.396;2022-09-03T05:27:11;99258.50;;;8.34;86.88
73297;BME280;61524;50.938;11.396;2022-09-03T05:29:36;99266.44;;;8.53;86.78
73297;BME280;61524;50.938;11.396;2022-09-03T05:32:02;99264.84;;;8.63;87.21
73297;BME280;61524;50.938;11.396;2022-09-03T05:34:28;99266.59;;;8.70;86.85
73297;BME280;61524;50.938;11.396;2022-09-03T05:36:53;99263.59;;;8.78;85.79
73297;BME280;61524;50.938;11.396;2022-09-03T05:39:20;99272.78;;;9.05;83.70
73297;BME280;61524;50.938;11.396;2022-09-03T05:41:46;99286.47;;;9.32;83.67
73297;BME280;61524;50.938;11.396;2022-09-03T05:44:14;99286.47;;;9.44;83.35
73297;BME280;61524;50.938;11.396;2022-09-03T05:46:40;99290.88;;;9.50;81.89
73297;BME280;61524;50.938;11.396;2022-09-03T05:49:06;99294.66;;;9.78;81.29
73297;BME280;61524;50.938;11.396;2022-09-03T05:51:33;99299.25;;;9.94;81.81
73297;BME280;61524;50.938;11.396;2022-09-03T05:53:59;99312.72;;;9.99;79.66
73297;BME280;61524;50.938;11.396;2022-09-03T05:56:28;99314.78;;;10.09;79.17
73297;BME280;61524;50.938;11.396;2022-09-03T05:58:56;99310.09;;;10.16;79.40
73297;BME280;61524;50.938;11.396;2022-09-03T06:06:19;99311.47;;;10.59;78.20
73297;BME280;61524;50.938;11.396;2022-09-03T06:08:53;99324.97;;;10.81;78.33
73297;BME280;61524;50.938;11.396;2022-09-03T06:11:19;99317.75;;;10.81;77.94
73297;BME280;61524;50.938;11.396;2022-09-03T06:13:45;99332.91;;;10.92;77.88
73297;BME280;61524;50.938;11.396;2022-09-03T06:16:12;99331.00;;;11.04;77.81
73297;BME280;61524;50.938;11.396;2022-09-03T06:18:37;99324.03;;;11.37;77.35
73297;BME280;61524;50.938;11.396;2022-09-03T06:21:05;99336.06;;;11.56;76.98
73297;BME280;61524;50.938;11.396;2022-09-03T06:23:32;99337.44;;;11.76;76.39
73297;BME280;61524;50.938;11.396;2022-09-03T06:26:05;99348.44;;;11.96;75.33
73297;BME280;61524;50.938;11.396;2022-09-03T06:28:33;99349.44;;;12.12;75.40
73297;BME280;61524;50.938;11.396;2022-09-03T06:31:00;99353.69;;;12.30;75.16
73297;BME280;61524;50.938;11.396;2022-09-03T06:33:27;99355.53;;;12.51;73.76
73297;BME280;61524;50.938;11.396;2022-09-03T06:35:55;99357.91;;;12.75;73.29
73297;BME280;61524;50.938;11.396;2022-09-03T06:38:28;99368.50;;;13.13;71.46
73297;BME280;61524;50.938;11.396;2022-09-03T06:40:59;99385.13;;;13.43;71.05
73297;BME280;61524;50.938;11.396;2022-09-03T06:43:29;99377.38;;;13.83;69.10
73297;BME280;61524;50.938;11.396;2022-09-03T06:46:04;99383.91;;;14.03;68.62
73297;BME280;61524;50.938;11.396;2022-09-03T06:48:31;99382.47;;;14.32;67.33
73297;BME280;61524;50.938;11.396;2022-09-03T06:51:10;99386.25;;;14.47;67.70
73297;BME280;61524;50.938;11.396;2022-09-03T06:53:41;99390.97;;;14.77;65.67
73297;BME280;61524;50.938;11.396;2022-09-03T06:56:11;99396.13;;;14.93;64.86
73297;BME280;61524;50.938;11.396;2022-09-03T06:58:40;99392.34;;;14.94;63.40
73297;BME280;61524;50.938;11.396;2022-09-03T07:01:14;99392.09;;;15.21;62.27
73297;BME280;61524;50.938;11.396;2022-09-03T07:03:41;99398.34;;;15.73;62.22
73297;BME280;61524;50.938;11.396;2022-09-03T07:06:09;99414.84;;;16.46;59.58
73297;BME280;61524;50.938;11.396;2022-09-03T07:08:36;99404.38;;;16.35;59.63
73297;BME280;61524;50.938;11.396;2022-09-03T07:11:03;99408.56;;;16.61;59.46
73297;BME280;61524;50.938;11.396;2022-09-03T07:13:44;99410.72;;;16.74;58.92
73297;BME280;61524;50.938;11.396;2022-09-03T07:16:24;99398.84;;;16.75;58.06
73297;BME280;61524;50.938;11.396;2022-09-03T07:18:51;99412.63;;;16.64;57.03
73297;BME280;61524;50.938;11.396;2022-09-03T07:21:19;99391.94;;;16.44;57.22
73297;BME280;61524;50.938;11.396;2022-09-03T07:23:46;99391.94;;;16.44;57.63
73297;BME280;61524;50.938;11.396;2022-09-03T07:28:49;99393.38;;;16.26;57.45
73297;BME280;61524;50.938;11.396;2022-09-03T07:31:17;99400.47;;;16.61;58.00
73297;BME280;61524;50.938;11.396;2022-09-03T07:33:45;99406.25;;;16.99;57.79
73297;BME280;61524;50.938;11.396;2022-09-03T07:36:15;99403.78;;;17.08;56.56
73297;BME280;61524;50.938;11.396;2022-09-03T07:38:42;99416.34;;;17.27;55.40
73297;BME280;61524;50.938;11.396;2022-09-03T07:41:12;99420.50;;;17.49;54.62
73297;BME280;61524;50.938;11.396;2022-09-03T07:43:40;99414.84;;;17.45;55.79
73297;BME280;61524;50.938;11.396;2022-09-03T07:46:18;99397.56;;;17.07;56.07
73297;BME280;61524;50.938;11.396;2022-09-03T07:48:51;99405.78;;;17.26;55.83
73297;BME280;61524;50.938;11.396;2022-09-03T07:51:25;99402.09;;;17.51;55.11
73297;BME280;61524;50.938;11.396;2022-09-03T07:53:52;99397.31;;;17.38;54.58
73297;BME280;61524;50.938;11.396;2022-09-03T07:56:18;99410.72;;;17.87;54.59
73297;BME280;61524;50.938;11.396;2022-09-03T07:58:43;99420.59;;;17.68;54.27
73297;BME280;61524;50.938;11.396;2022-09-03T08:01:12;99403.91;;;17.61;54.42
73297;BME280;61524;50.938;11.396;2022-09-03T08:03:41;99414.69;;;17.95;53.25
73297;BME280;61524;50.938;11.396;2022-09-03T08:06:07;99426.72;;;18.07;52.82
73297;BME280;61524;50.938;11.396;2022-09-03T08:08:34;99417.06;;;18.01;52.18
73297;BME280;61524;50.938;11.396;2022-09-03T08:11:08;99430.00;;;18.04;52.65
73297;BME280;61524;50.938;11.396;2022-09-03T08:13:43;99423.41;;;18.16;53.28
73297;BME280;61524;50.938;11.396;2022-09-03T08:16:10;99417.81;;;18.07;52.83
73297;BME280;61524;50.938;11.396;2022-09-03T08:18:37;99429.47;;;18.31;52.10
73297;BME280;61524;50.938;11.396;2022-09-03T08:21:09;99423.69;;;18.14;52.27
73297;BME280;61524;50.938;11.396;2022-09-03T08:23:41;99426.69;;;18.36;52.43
73297;BME280;61524;50.938;11.396;2022-09-03T08:26:07;99422.28;;;18.46;51.75
73297;BME280;61524;50.938;11.396;2022-09-03T08:28:34;99416.69;;;18.56;52.09
73297;BME280;61524;50.938;11.396;2022-09-03T08:33:38;99415.84;;;18.60;51.82
73297;BME280;61524;50.938;11.396;2022-09-03T08:36:11;99424.03;;;18.79;50.88
73297;BME280;61524;50.938;11.396;2022-09-03T08:38:38;99414.97;;;18.89;51.08
73297;BME280;61524;50.938;11.396;2022-09-03T08:44:28;99422.13;;;18.99;50.35
73297;BME280;61524;50.938;11.396;2022-09-03T08:49:44;99401.63;;;18.74;49.67
73297;BME280;61524;50.938;11.396;2022-09-03T08:55:02;99421.06;;;19.00;50.18
73297;BME280;61524;50.938;11.396;2022-09-03T08:57:31;99416.13;;;19.02;50.05
73297;BME280;61524;50.938;11.396;2022-09-03T09:00:01;99404.78;;;19.19;49.55
73297;BME280;61524;50.938;11.396;2022-09-03T09:05:29;99429.44;;;19.36;49.00
73297;BME280;61524;50.938;11.396;2022-09-03T09:14:06;99416.31;;;19.62;48.15
73297;BME280;61524;50.938;11.396;2022-09-03T09:22:10;99428.28;;;20.21;46.58
73297;BME280;61524;50.938;11.396;2022-09-03T09:24:44;99420.75;;;20.18;46.55
73297;BME280;61524;50.938;11.396;2022-09-03T09:27:13;99424.56;;;20.31;45.01
73297;BME280;61524;50.938;11.396;2022-09-03T09:29:42;99413.09;;;20.20;45.15
73297;BME280;61524;50.938;11.396;2022-09-03T09:32:11;99422.97;;;20.30;45.01
73297;BME280;61524;50.938;11.396;2022-09-03T09:34:39;99409.38;;;20.43;45.98
73297;BME280;61524;50.938;11.396;2022-09-03T09:37:09;99412.81;;;20.49;44.33
73297;BME280;61524;50.938;11.396;2022-09-03T09:39:36;99412.88;;;20.44;43.72
73297;BME280;61524;50.938;11.396;2022-09-03T09:42:07;99412.53;;;20.51;44.44
73297;BME280;61524;50.938;11.396;2022-09-03T09:44:35;99408.09;;;20.55;43.90
73297;BME280;61524;50.938;11.396;2022-09-03T09:47:26;99418.03;;;20.73;42.86
73297;BME280;61524;50.938;11.396;2022-09-03T09:49:55;99412.97;;;20.94;42.60
73297;BME280;61524;50.938;11.396;2022-09-03T09:52:23;99411.16;;;20.89;40.19
73297;BME280;61524;50.938;11.396;2022-09-03T09:54:52;99418.28;;;20.99;39.55
73297;BME280;61524;50.938;11.396;2022-09-03T09:57:25;99419.66;;;21.10;39.34
73297;BME280;61524;50.938;11.396;2022-09-03T10:00:08;99387.63;;;20.71;39.63
73297;BME280;61524;50.938;11.396;2022-09-03T10:02:38;99385.34;;;20.78;40.51
73297;BME280;61524;50.938;11.396;2022-09-03T10:05:14;99387.84;;;20.75;38.68
73297;BME280;61524;50.938;11.396;2022-09-03T10:07:56;99392.94;;;20.90;38.16
73297;BME280;61524;50.938;11.396;2022-09-03T10:10:22;99392.81;;;20.95;38.41
73297;BME280;61524;50.938;11.396;2022-09-03T10:15:49;99402.72;;;21.13;38.28
73297;BME280;61524;50.938;11.396;2022-09-03T10:24:24;99394.59;;;21.36;40.20
73297;BME280;61524;50.938;11.396;2022-09-03T10:26:53;99381.31;;;21.12;39.38
73297;BME280;61524;50.938;11.396;2022-09-03T10:29:21;99388.91;;;21.46;37.96
73297;BME280;61524;50.938;11.396;2022-09-03T10:37:47;99371.31;;;21.21;39.74
73297;BME280;61524;50.938;11.396;2022-09-03T10:40:19;99375.19;;;21.29;39.11
73297;BME280;61524;50.938;11.396;2022-09-03T10:46:06;99363.88;;;21.58;39.65
73297;BME280;61524;50.938;11.396;2022-09-03T10:48:50;99371.19;;;21.48;39.76
73297;BME280;61524;50.938;11.396;2022-09-03T10:51:26;99365.00;;;21.57;39.71
73297;BME280;61524;50.938;11.396;2022-09-03T10:56:26;99362.78;;;21.59;39.83
73297;BME280;61524;50.938;11.396;2022-09-03T11:07:12;99350.59;;;21.56;39.18
73297;BME280;61524;50.938;11.396;2022-09-03T11:12:26;99331.28;;;21.35;39.15
73297;BME280;61524;50.938;11.396;2022-09-03T11:15:02;99336.84;;;21.53;40.31
73297;BME280;61524;50.938;11.396;2022-09-03T11:17:43;99351.13;;;21.67;38.87
73297;BME280;61524;50.938;11.396;2022-09-03T11:22:36;99329.84;;;21.60;39.21
73297;BME280;61524;50.938;11.396;2022-09-03T11:25:04;99325.31;;;21.56;39.18
73297;BME280;61524;50.938;11.396;2022-09-03T11:30:12;99335.28;;;22.00;38.71
73297;BME280;61524;50.938;11.396;2022-09-03T11:33:16;99341.56;;;22.09;39.69
73297;BME280;61524;50.938;11.396;2022-09-03T11:35:43;99333.34;;;22.00;38.11
73297;BME280;61524;50.938;11.396;2022-09-03T11:41:14;99297.59;;;21.45;38.91
73297;BME280;61524;50.938;11.396;2022-09-03T11:43:48;99312.25;;;21.66;40.12
73297;BME280;61524;50.938;11.396;2022-09-03T11:48:50;99304.81;;;21.81;40.81
73297;BME280;61524;50.938;11.396;2022-09-03T11:51:35;99269.28;;;21.15;38.96
73297;BME280;61524;50.938;11.396;2022-09-03T11:56:38;99296.47;;;21.46;39.67
73297;BME280;61524;50.938;11.396;2022-09-03T12:01:43;99306.69;;;21.71;38.62
73297;BME280;61524;50.938;11.396;2022-09-03T12:04:14;99304.72;;;22.03;39.77
73297;BME280;61524;50.938;11.396;2022-09-03T12:15:24;99323.59;;;22.74;39.06
73297;BME280;61524;50.938;11.396;2022-09-03T12:17:33;99321.22;;;22.72;38.09
73297;BME280;61524;50.938;11.396;2022-09-03T12:20:11;99296.78;;;22.33;36.96
73297;BME280;61524;50.938;11.396;2022-09-03T12:22:37;99290.25;;;22.34;38.68
73297;BME280;61524;50.938;11.396;2022-09-03T12:25:13;99293.28;;;22.23;38.32
73297;BME280;61524;50.938;11.396;2022-09-03T12:27:43;99289.91;;;22.26;38.41
73297;BME280;61524;50.938;11.396;2022-09-03T12:30:28;99286.84;;;22.19;39.07
73297;BME280;61524;50.938;11.396;2022-09-03T12:33:16;99285.59;;;22.25;40.63
73297;BME280;61524;50.938;11.396;2022-09-03T12:35:42;99269.09;;;21.73;38.55
73297;BME280;61524;50.938;11.396;2022-09-03T12:38:07;99247.19;;;21.39;39.06
73297;BME280;61524;50.938;11.396;2022-09-03T12:40:33;99257.47;;;21.42;40.73
73297;BME280;61524;50.938;11.396;2022-09-03T12:43:13;99266.06;;;21.75;39.07
73297;BME280;61524;50.938;11.396;2022-09-03T12:45:48;99257.09;;;21.74;39.08
73297;BME280;61524;50.938;11.396;2022-09-03T12:48:16;99267.69;;;21.85;40.11
73297;BME280;61524;50.938;11.396;2022-09-03T12:50:44;99253.47;;;21.88;39.79
73297;BME280;61524;50.938;11.396;2022-09-03T12:53:13;99261.44;;;22.41;39.65
73297;BME280;61524;50.938;11.396;2022-09-03T12:55:45;99257.25;;;22.52;37.72
73297;BME280;61524;50.938;11.396;2022-09-03T13:00:49;99257.41;;;22.73;38.84
73297;BME280;61524;50.938;11.396;2022-09-03T13:03:30;99260.44;;;22.80;39.03
73297;BME280;61524;50.938;11.396;2022-09-03T13:06:00;99247.31;;;22.74;38.65
73297;BME280;61524;50.938;11.396;2022-09-03T13:08:48;99233.88;;;22.51;39.20
73297;BME280;61524;50.938;11.396;2022-09-03T13:11:19;99238.97;;;22.70;39.52
73297;BME280;61524;50.938;11.396;2022-09-03T13:21:33;99232.44;;;22.45;37.85
73297;BME280;61524;50.938;11.396;2022-09-03T13:32:51;99225.06;;;22.46;39.97
73297;BME280;61524;50.938;11.396;2022-09-03T13:35:41;99202.16;;;22.30;38.73
73297;BME280;61524;50.938;11.396;2022-09-03T13:43:56;99193.50;;;22.27;38.55
73297;BME280;61524;50.938;11.396;2022-09-03T13:46:53;99202.50;;;22.45;37.75
73297;BME280;61524;50.938;11.396;2022-09-03T13:50:16;99193.03;;;22.25;38.02
73297;BME280;61524;50.938;11.396;2022-09-03T13:53:01;99188.88;;;22.28;39.56
73297;BME280;61524;50.938;11.396;2022-09-03T13:55:42;99179.53;;;22.03;38.94
73297;BME280;61524;50.938;11.396;2022-09-03T13:58:45;99200.56;;;22.37;38.29
73297;BME280;61524;50.938;11.396;2022-09-03T14:04:13;99190.63;;;22.41;39.66
73297;BME280;61524;50.938;11.396;2022-09-03T14:06:50;99187.41;;;22.48;38.98
73297;BME280;61524;50.938;11.396;2022-09-03T14:12:01;99189.19;;;22.61;37.74
73297;BME280;61524;50.938;11.396;2022-09-03T14:14:36;99192.53;;;22.58;37.49
73297;BME280;61524;50.938;11.396;2022-09-03T14:20:10;99174.72;;;21.91;39.57
73297;BME280;61524;50.938;11.396;2022-09-03T14:22:50;99180.47;;;21.90;40.66
73297;BME280;61524;50.938;11.396;2022-09-03T14:25:25;99170.72;;;21.80;39.10
73297;BME280;61524;50.938;11.396;2022-09-03T14:27:54;99173.22;;;21.59;40.60
73297;BME280;61524;50.938;11.396;2022-09-03T14:33:09;99163.28;;;21.55;41.83
73297;BME280;61524;50.938;11.396;2022-09-03T14:35:56;99171.00;;;21.79;39.25
73297;BME280;61524;50.938;11.396;2022-09-03T14:41:21;99178.41;;;21.87;39.58
73297;BME280;61524;50.938;11.396;2022-09-03T15:00:36;99170.53;;;21.77;39.25
73297;BME280;61524;50.938;11.396;2022-09-03T15:06:04;99170.84;;;21.66;40.14
73297;BME280;61524;50.938;11.396;2022-09-03T15:08:48;99163.47;;;21.58;39.52
73297;BME280;61524;50.938;11.396;2022-09-03T15:11:20;99168.78;;;21.63;39.40
73297;BME280;61524;50.938;11.396;2022-09-03T15:14:09;99174.03;;;21.68;39.42
73297;BME280;61524;50.938;11.396;2022-09-03T15:19:57;99168.25;;;21.53;39.56
73297;BME280;61524;50.938;11.396;2022-09-03T15:33:32;99175.16;;;21.28;40.16
73297;BME280;61524;50.938;11.396;2022-09-03T15:36:08;99176.28;;;21.27;40.64
73297;BME280;61524;50.938;11.396;2022-09-03T15:39:04;99169.16;;;21.08;41.06
73297;BME280;61524;50.938;11.396;2022-09-03T15:41:34;99152.97;;;20.94;42.13
73297;BME280;61524;50.938;11.396;2022-09-03T15:44:08;99163.75;;;20.77;43.66
73297;BME280;61524;50.938;11.396;2022-09-03T15:46:37;99167.63;;;20.85;41.57
73297;BME280;61524;50.938;11.396;2022-09-03T15:54:42;99168.59;;;20.44;46.38
73297;BME280;61524;50.938;11.396;2022-09-03T15:57:20;99172.31;;;20.12;50.96
73297;BME280;61524;50.938;11.396;2022-09-03T15:59:58;99160.31;;;20.04;47.92
73297;BME280;61524;50.938;11.396;2022-09-03T16:05:46;99156.59;;;20.00;45.91
73297;BME280;61524;50.938;11.396;2022-09-03T16:16:18;99145.16;;;20.03;48.37
73297;BME280;61524;50.938;11.396;2022-09-03T16:19:13;99147.16;;;19.98;47.44
73297;BME280;61524;50.938;11.396;2022-09-03T16:22:00;99156.22;;;19.93;47.24
73297;BME280;61524;50.938;11.396;2022-09-03T16:24:41;99149.47;;;20.04;47.09
73297;BME280;61524;50.938;11.396;2022-09-03T16:30:12;99149.09;;;20.19;46.04
73297;BME280;61524;50.938;11.396;2022-09-03T16:32:53;99151.38;;;20.26;46.25
73297;BME280;61524;50.938;11.396;2022-09-03T16:38:08;99150.94;;;20.10;47.16
73297;BME280;61524;50.938;11.396;2022-09-03T16:40:42;99149.03;;;20.11;46.21
73297;BME280;61524;50.938;11.396;2022-09-03T16:43:21;99153.34;;;20.12;46.03
73297;BME280;61524;50.938;11.396;2022-09-03T16:51:37;99156.78;;;20.04;46.45
73297;BME280;61524;50.938;11.396;2022-09-03T16:57:21;99152.13;;;20.18;45.68
73297;BME280;61524;50.938;11.396;2022-09-03T17:11:08;99152.47;;;20.03;46.09
73297;BME280;61524;50.938;11.396;2022-09-03T17:13:55;99154.88;;;20.04;46.27
73297;BME280;61524;50.938;11.396;2022-09-03T17:19:31;99142.66;;;19.93;46.08
73297;BME280;61524;50.938;11.396;2022-09-03T17:24:55;99140.53;;;19.90;45.40
73297;BME280;61524;50.938;11.396;2022-09-03T17:27:47;99139.25;;;19.87;45.79
73297;BME280;61524;50.938;11.396;2022-09-03T17:30:20;99138.16;;;19.75;45.84
73297;BME280;61524;50.938;11.396;2022-09-03T17:33:18;99133.38;;;19.72;45.58
73297;BME280;61524;50.938;11.396;2022-09-03T17:36:16;99129.75;;;19.62;46.19
73297;BME280;61524;50.938;11.396;2022-09-03T17:44:40;99146.66;;;19.59;46.69